sensor_id;sensor_type;location;lat;lon;timestamp;temperature;humidity
8481;DHT22;4277;51.354;6.740;2022-08-25T00:01:37;24.30;17.10
8481;DHT22;4277;51.354;6.740;2022-08-25T00:04:06;22.90;19.90
8481;DHT22;4277;51.354;6.740;2022-08-25T00:06:32;22.80;20.40
8481;DHT22;4277;51.354;6.740;2022-08-25T00:08:58;22.80;20.80
8481;DHT22;4277;51.354;6.740;2022-08-25T00:13:54;22.80;19.80
8481;DHT22;4277;51.354;6.740;2022-08-25T00:16:21;22.60;16.00
8481;DHT22;4277;51.354;6.740;2022-08-25T00:18:50;22.50;16.00
8481;DHT22;4277;51.354;6.740;2022-08-25T01:33:14;21.60;82.70
8481;DHT22;4277;51.354;6.740;2022-08-25T06:34:35;20.00;89.50
8481;DHT22;4277;51.354;6.740;2022-08-25T06:37:01;21.60;80.10
8481;DHT22;4277;51.354;6.740;2022-08-25T06:39:27;21.60;68.10
8481;DHT22;4277;51.354;6.740;2022-08-25T06:41:53;21.70;64.90
8481;DHT22;4277;51.354;6.740;2022-08-25T06:54:06;21.80;72.40
8481;DHT22;4277;51.354;6.740;2022-08-25T06:56:34;22.10;77.60
8481;DHT22;4277;51.354;6.740;2022-08-25T06:59:04;22.20;65.40
8481;DHT22;4277;51.354;6.740;2022-08-25T07:01:30;22.30;59.50
8481;DHT22;4277;51.354;6.740;2022-08-25T07:06:28;22.30;60.20
8481;DHT22;4277;51.354;6.740;2022-08-25T07:08:56;22.40;57.20
8481;DHT22;4277;51.354;6.740;2022-08-25T07:11:22;22.50;67.60
8481;DHT22;4277;51.354;6.740;2022-08-25T07:13:48;22.60;57.50
8481;DHT22;4277;51.354;6.740;2022-08-25T07:16:15;22.70;59.60
8481;DHT22;4277;51.354;6.740;2022-08-25T07:18:42;22.70;56.40
8481;DHT22;4277;51.354;6.740;2022-08-25T07:21:07;22.80;66.60
8481;DHT22;4277;51.354;6.740;2022-08-25T07:23:33;22.80;56.80
8481;DHT22;4277;51.354;6.740;2022-08-25T07:26:14;22.90;54.60
8481;DHT22;4277;51.354;6.740;2022-08-25T07:28:40;23.00;54.40
8481;DHT22;4277;51.354;6.740;2022-08-25T07:31:06;23.10;60.20
8481;DHT22;4277;51.354;6.740;2022-08-25T07:33:32;23.10;56.20
8481;DHT22;4277;51.354;6.740;2022-08-25T07:35:58;23.10;56.10
8481;DHT22;4277;51.354;6.740;2022-08-25T07:38:24;23.20;57.80
8481;DHT22;4277;51.354;6.740;2022-08-25T07:40:50;23.40;56.30
8481;DHT22;4277;51.354;6.740;2022-08-25T07:43:20;23.40;53.80
8481;DHT22;4277;51.354;6.740;2022-08-25T07:45:46;23.50;56.00
8481;DHT22;4277;51.354;6.740;2022-08-25T07:48:13;23.40;53.10
8481;DHT22;4277;51.354;6.740;2022-08-25T07:50:41;23.60;53.40
8481;DHT22;4277;51.354;6.740;2022-08-25T07:53:09;23.70;52.00
8481;DHT22;4277;51.354;6.740;2022-08-25T07:55:35;23.70;52.10
8481;DHT22;4277;51.354;6.740;2022-08-25T07:58:02;23.70;51.90
8481;DHT22;4277;51.354;6.740;2022-08-25T08:00:28;23.80;49.70
8481;DHT22;4277;51.354;6.740;2022-08-25T08:02:56;24.10;48.00
8481;DHT22;4277;51.354;6.740;2022-08-25T08:05:23;24.10;47.30
8481;DHT22;4277;51.354;6.740;2022-08-25T08:07:48;24.20;43.00
8481;DHT22;4277;51.354;6.740;2022-08-25T08:10:14;24.30;41.20
8481;DHT22;4277;51.354;6.740;2022-08-25T08:12:40;24.40;38.10
8481;DHT22;4277;51.354;6.740;2022-08-25T08:15:07;24.30;41.20
8481;DHT22;4277;51.354;6.740;2022-08-25T08:17:33;24.40;39.10
8481;DHT22;4277;51.354;6.740;2022-08-25T08:19:59;24.30;43.20
8481;DHT22;4277;51.354;6.740;2022-08-25T08:22:24;24.40;42.60
8481;DHT22;4277;51.354;6.740;2022-08-25T08:24:50;24.60;35.50
8481;DHT22;4277;51.354;6.740;2022-08-25T08:27:16;24.90;33.00
8481;DHT22;4277;51.354;6.740;2022-08-25T08:29:41;25.10;31.30
8481;DHT22;4277;51.354;6.740;2022-08-25T08:32:09;25.20;30.10
8481;DHT22;4277;51.354;6.740;2022-08-25T08:34:38;24.90;34.90
8481;DHT22;4277;51.354;6.740;2022-08-25T08:37:05;24.80;32.70
8481;DHT22;4277;51.354;6.740;2022-08-25T08:39:30;25.00;34.00
8481;DHT22;4277;51.354;6.740;2022-08-25T08:51:05;25.40;29.00
8481;DHT22;4277;51.354;6.740;2022-08-25T08:53:43;25.40;28.40
8481;DHT22;4277;51.354;6.740;2022-08-25T08:56:14;25.30;27.80
8481;DHT22;4277;51.354;6.740;2022-08-25T08:58:55;25.30;26.80
8481;DHT22;4277;51.354;6.740;2022-08-25T09:01:27;25.60;24.90
8481;DHT22;4277;51.354;6.740;2022-08-25T09:04:04;25.80;40.30
8481;DHT22;4277;51.354;6.740;2022-08-25T09:06:46;25.90;20.10
8481;DHT22;4277;51.354;6.740;2022-08-25T09:09:17;25.90;23.90
8481;DHT22;4277;51.354;6.740;2022-08-25T09:23:18;26.20;19.40
8481;DHT22;4277;51.354;6.740;2022-08-25T09:25:53;26.10;23.90
8481;DHT22;4277;51.354;6.740;2022-08-25T09:28:31;26.20;19.80
8481;DHT22;4277;51.354;6.740;2022-08-25T09:31:26;26.20;18.30
8481;DHT22;4277;51.354;6.740;2022-08-25T09:33:56;26.30;22.10
8481;DHT22;4277;51.354;6.740;2022-08-25T09:36:22;26.60;15.50
8481;DHT22;4277;51.354;6.740;2022-08-25T09:38:48;26.50;18.80
8481;DHT22;4277;51.354;6.740;2022-08-25T09:41:33;26.60;21.00
8481;DHT22;4277;51.354;6.740;2022-08-25T09:43:59;26.60;18.30
8481;DHT22;4277;51.354;6.740;2022-08-25T09:46:27;26.80;13.90
8481;DHT22;4277;51.354;6.740;2022-08-25T09:48:54;26.90;47.30
8481;DHT22;4277;51.354;6.740;2022-08-25T09:51:25;26.80;51.20
8481;DHT22;4277;51.354;6.740;2022-08-25T10:21:25;27.50;11.10
8481;DHT22;4277;51.354;6.740;2022-08-25T10:23:52;27.50;10.00
8481;DHT22;4277;51.354;6.740;2022-08-25T10:35:22;27.70;1.50
8481;DHT22;4277;51.354;6.740;2022-08-25T10:44:10;28.60;1.00
8481;DHT22;4277;51.354;6.740;2022-08-25T10:49:55;28.50;1.00
8481;DHT22;4277;51.354;6.740;2022-08-25T10:52:44;28.70;1.00
8481;DHT22;4277;51.354;6.740;2022-08-25T10:57:59;28.60;1.00
8481;DHT22;4277;51.354;6.740;2022-08-25T11:00:36;28.60;1.00
8481;DHT22;4277;51.354;6.740;2022-08-25T11:03:17;28.80;1.00
8481;DHT22;4277;51.354;6.740;2022-08-25T11:06:00;28.80;1.00
8481;DHT22;4277;51.354;6.740;2022-08-25T11:08:39;28.50;1.00
8481;DHT22;4277;51.354;6.740;2022-08-25T11:16:19;28.70;1.00
8481;DHT22;4277;51.354;6.740;2022-08-25T11:18:56;28.90;1.00
8481;DHT22;4277;51.354;6.740;2022-08-25T11:24:58;28.80;1.00
8481;DHT22;4277;51.354;6.740;2022-08-25T11:27:27;29.00;1.00
8481;DHT22;4277;51.354;6.740;2022-08-25T11:30:01;29.20;1.00
8481;DHT22;4277;51.354;6.740;2022-08-25T11:32:28;29.50;1.00
8481;DHT22;4277;51.354;6.740;2022-08-25T11:35:03;29.60;1.00
8481;DHT22;4277;51.354;6.740;2022-08-25T11:37:31;29.20;1.00
8481;DHT22;4277;51.354;6.740;2022-08-25T11:48:32;29.80;1.00
8481;DHT22;4277;51.354;6.740;2022-08-25T11:51:11;29.50;1.00
8481;DHT22;4277;51.354;6.740;2022-08-25T11:53:39;29.90;1.00
8481;DHT22;4277;51.354;6.740;2022-08-25T11:56:33;30.10;1.00
8481;DHT22;4277;51.354;6.740;2022-08-25T11:59:00;30.20;1.00
8481;DHT22;4277;51.354;6.740;2022-08-25T12:04:32;29.80;1.00
8481;DHT22;4277;51.354;6.740;2022-08-25T12:07:19;29.60;1.00
8481;DHT22;4277;51.354;6.740;2022-08-25T12:18:16;30.70;1.00
8481;DHT22;4277;51.354;6.740;2022-08-25T12:23:40;30.10;1.00
8481;DHT22;4277;51.354;6.740;2022-08-25T12:26:27;29.90;1.00
8481;DHT22;4277;51.354;6.740;2022-08-25T12:34:50;30.40;1.00
8481;DHT22;4277;51.354;6.740;2022-08-25T12:37:21;30.50;1.00
8481;DHT22;4277;51.354;6.740;2022-08-25T12:42:34;31.10;1.00
8481;DHT22;4277;51.354;6.740;2022-08-25T12:47:51;30.90;1.00
8481;DHT22;4277;51.354;6.740;2022-08-25T12:50:43;30.80;1.00
8481;DHT22;4277;51.354;6.740;2022-08-25T12:53:40;30.90;1.00
8481;DHT22;4277;51.354;6.740;2022-08-25T12:56:07;31.00;1.00
8481;DHT22;4277;51.354;6.740;2022-08-25T13:01:29;31.30;1.00
8481;DHT22;4277;51.354;6.740;2022-08-25T13:04:30;31.40;1.00
8481;DHT22;4277;51.354;6.740;2022-08-25T13:12:45;31.40;1.00
8481;DHT22;4277;51.354;6.740;2022-08-25T13:15:32;31.20;1.00
8481;DHT22;4277;51.354;6.740;2022-08-25T13:18:32;31.20;1.00
8481;DHT22;4277;51.354;6.740;2022-08-25T13:21:17;31.00;1.00
8481;DHT22;4277;51.354;6.740;2022-08-25T13:23:49;31.20;1.00
8481;DHT22;4277;51.354;6.740;2022-08-25T13:26:28;31.50;1.00
8481;DHT22;4277;51.354;6.740;2022-08-25T13:28:58;31.80;1.00
8481;DHT22;4277;51.354;6.740;2022-08-25T13:31:25;32.00;1.00
8481;DHT22;4277;51.354;6.740;2022-08-25T13:33:57;31.80;1.00
8481;DHT22;4277;51.354;6.740;2022-08-25T13:36:27;31.80;1.00
8481;DHT22;4277;51.354;6.740;2022-08-25T13:39:18;32.00;1.00
8481;DHT22;4277;51.354;6.740;2022-08-25T13:41:55;31.70;1.00
8481;DHT22;4277;51.354;6.740;2022-08-25T13:44:24;31.20;1.00
8481;DHT22;4277;51.354;6.740;2022-08-25T13:47:14;31.40;1.00
8481;DHT22;4277;51.354;6.740;2022-08-25T13:49:45;31.80;1.00
8481;DHT22;4277;51.354;6.740;2022-08-25T13:52:22;31.70;1.00
8481;DHT22;4277;51.354;6.740;2022-08-25T13:54:49;32.00;1.00
8481;DHT22;4277;51.354;6.740;2022-08-25T13:57:22;32.00;1.00
8481;DHT22;4277;51.354;6.740;2022-08-25T13:59:50;32.30;1.00
8481;DHT22;4277;51.354;6.740;2022-08-25T14:02:47;32.20;1.00
8481;DHT22;4277;51.354;6.740;2022-08-25T14:05:15;32.20;1.00
8481;DHT22;4277;51.354;6.740;2022-08-25T14:07:52;32.50;1.00
8481;DHT22;4277;51.354;6.740;2022-08-25T14:10:38;32.40;1.00
8481;DHT22;4277;51.354;6.740;2022-08-25T14:15:50;32.20;1.00
8481;DHT22;4277;51.354;6.740;2022-08-25T14:18:21;31.80;1.00
8481;DHT22;4277;51.354;6.740;2022-08-25T14:20:52;31.50;1.00
8481;DHT22;4277;51.354;6.740;2022-08-25T14:23:22;31.60;1.00
8481;DHT22;4277;51.354;6.740;2022-08-25T14:25:51;31.90;1.00
8481;DHT22;4277;51.354;6.740;2022-08-25T14:28:20;32.20;1.00
8481;DHT22;4277;51.354;6.740;2022-08-25T14:33:36;31.90;1.00
8481;DHT22;4277;51.354;6.740;2022-08-25T14:36:03;32.20;1.00
8481;DHT22;4277;51.354;6.740;2022-08-25T14:38:29;32.20;1.00
8481;DHT22;4277;51.354;6.740;2022-08-25T14:40:55;31.70;1.00
8481;DHT22;4277;51.354;6.740;2022-08-25T14:43:21;32.00;1.00
8481;DHT22;4277;51.354;6.740;2022-08-25T14:45:47;31.60;1.00
8481;DHT22;4277;51.354;6.740;2022-08-25T14:48:29;31.40;1.00
8481;DHT22;4277;51.354;6.740;2022-08-25T14:50:57;31.10;1.00
8481;DHT22;4277;51.354;6.740;2022-08-25T14:53:24;31.30;1.00
8481;DHT22;4277;51.354;6.740;2022-08-25T14:55:50;31.60;1.00
8481;DHT22;4277;51.354;6.740;2022-08-25T14:58:19;31.50;1.00
8481;DHT22;4277;51.354;6.740;2022-08-25T15:00:46;31.50;1.00
8481;DHT22;4277;51.354;6.740;2022-08-25T15:03:26;31.60;1.00
8481;DHT22;4277;51.354;6.740;2022-08-25T15:05:53;31.40;1.00
8481;DHT22;4277;51.354;6.740;2022-08-25T15:08:19;31.00;1.00
8481;DHT22;4277;51.354;6.740;2022-08-25T15:11:03;31.10;1.00
8481;DHT22;4277;51.354;6.740;2022-08-25T15:13:29;31.60;1.00
8481;DHT22;4277;51.354;6.740;2022-08-25T15:15:55;31.90;1.00
8481;DHT22;4277;51.354;6.740;2022-08-25T15:18:21;32.10;1.00
8481;DHT22;4277;51.354;6.740;2022-08-25T15:20:47;32.40;1.00
8481;DHT22;4277;51.354;6.740;2022-08-25T15:23:13;32.50;1.00
8481;DHT22;4277;51.354;6.740;2022-08-25T15:25:45;32.60;1.00
8481;DHT22;4277;51.354;6.740;2022-08-25T15:28:12;32.50;1.00
8481;DHT22;4277;51.354;6.740;2022-08-25T15:30:38;32.30;1.00
8481;DHT22;4277;51.354;6.740;2022-08-25T15:33:04;32.50;1.00
8481;DHT22;4277;51.354;6.740;2022-08-25T15:35:30;32.40;1.00
8481;DHT22;4277;51.354;6.740;2022-08-25T15:37:56;32.10;1.00
8481;DHT22;4277;51.354;6.740;2022-08-25T15:40:22;32.60;1.00
8481;DHT22;4277;51.354;6.740;2022-08-25T15:42:47;32.90;1.00
8481;DHT22;4277;51.354;6.740;2022-08-25T15:45:13;33.10;1.00
8481;DHT22;4277;51.354;6.740;2022-08-25T15:47:38;33.30;1.00
8481;DHT22;4277;51.354;6.740;2022-08-25T15:50:07;33.10;1.00
8481;DHT22;4277;51.354;6.740;2022-08-25T15:52:34;33.30;1.00
8481;DHT22;4277;51.354;6.740;2022-08-25T15:55:00;33.30;1.00
8481;DHT22;4277;51.354;6.740;2022-08-25T15:57:26;33.40;1.00
8481;DHT22;4277;51.354;6.740;2022-08-25T15:59:51;33.60;1.00
8481;DHT22;4277;51.354;6.740;2022-08-25T16:02:17;33.70;1.00
8481;DHT22;4277;51.354;6.740;2022-08-25T16:04:43;33.80;1.00
8481;DHT22;4277;51.354;6.740;2022-08-25T16:07:09;33.90;1.00
8481;DHT22;4277;51.354;6.740;2022-08-25T16:09:34;33.80;1.00
8481;DHT22;4277;51.354;6.740;2022-08-25T16:12:00;33.40;1.00
8481;DHT22;4277;51.354;6.740;2022-08-25T16:14:26;33.60;1.00
8481;DHT22;4277;51.354;6.740;2022-08-25T16:16:52;33.80;1.00
8481;DHT22;4277;51.354;6.740;2022-08-25T16:19:17;34.00;1.00
8481;DHT22;4277;51.354;6.740;2022-08-25T16:21:43;34.10;1.00
8481;DHT22;4277;51.354;6.740;2022-08-25T16:24:09;34.40;1.00
8481;DHT22;4277;51.354;6.740;2022-08-25T16:26:36;34.40;1.00
8481;DHT22;4277;51.354;6.740;2022-08-25T16:29:03;34.80;1.00
8481;DHT22;4277;51.354;6.740;2022-08-25T16:31:29;35.20;1.00
8481;DHT22;4277;51.354;6.740;2022-08-25T16:33:55;35.70;1.00
8481;DHT22;4277;51.354;6.740;2022-08-25T16:36:22;36.00;1.00
8481;DHT22;4277;51.354;6.740;2022-08-25T16:38:49;36.40;1.00
8481;DHT22;4277;51.354;6.740;2022-08-25T16:41:19;36.40;1.00
8481;DHT22;4277;51.354;6.740;2022-08-25T16:43:45;36.30;1.00
8481;DHT22;4277;51.354;6.740;2022-08-25T17:03:41;35.70;1.00
8481;DHT22;4277;51.354;6.740;2022-08-25T17:08:34;32.40;1.00
8481;DHT22;4277;51.354;6.740;2022-08-25T17:13:33;32.10;1.00
8481;DHT22;4277;51.354;6.740;2022-08-25T17:15:59;32.00;1.00
8481;DHT22;4277;51.354;6.740;2022-08-25T17:18:26;32.00;1.00
8481;DHT22;4277;51.354;6.740;2022-08-25T17:21:03;32.00;1.00
8481;DHT22;4277;51.354;6.740;2022-08-25T17:23:29;32.00;1.00
8481;DHT22;4277;51.354;6.740;2022-08-25T17:25:54;31.90;1.00
8481;DHT22;4277;51.354;6.740;2022-08-25T17:28:20;31.80;1.00
8481;DHT22;4277;51.354;6.740;2022-08-25T17:30:47;31.60;1.00
8481;DHT22;4277;51.354;6.740;2022-08-25T17:33:12;31.50;1.00
8481;DHT22;4277;51.354;6.740;2022-08-25T17:35:43;31.40;1.00
8481;DHT22;4277;51.354;6.740;2022-08-25T17:38:10;31.30;1.00
8481;DHT22;4277;51.354;6.740;2022-08-25T17:40:36;31.20;1.00
8481;DHT22;4277;51.354;6.740;2022-08-25T17:43:03;31.20;1.00
8481;DHT22;4277;51.354;6.740;2022-08-25T17:45:29;31.10;1.00
8481;DHT22;4277;51.354;6.740;2022-08-25T17:47:55;31.00;1.00
8481;DHT22;4277;51.354;6.740;2022-08-25T17:50:21;31.30;1.00
8481;DHT22;4277;51.354;6.740;2022-08-25T17:52:49;31.80;1.00
8481;DHT22;4277;51.354;6.740;2022-08-25T17:55:15;32.20;1.00
8481;DHT22;4277;51.354;6.740;2022-08-25T17:57:41;32.20;1.00
8481;DHT22;4277;51.354;6.740;2022-08-25T18:00:07;32.10;1.00
8481;DHT22;4277;51.354;6.740;2022-08-25T18:02:36;31.80;1.00
8481;DHT22;4277;51.354;6.740;2022-08-25T18:05:03;31.50;1.00
8481;DHT22;4277;51.354;6.740;2022-08-25T18:07:29;31.20;1.00
8481;DHT22;4277;51.354;6.740;2022-08-25T18:09:55;30.90;1.00
8481;DHT22;4277;51.354;6.740;2022-08-25T18:12:21;30.60;1.00
8481;DHT22;4277;51.354;6.740;2022-08-25T18:14:47;30.40;1.00
8481;DHT22;4277;51.354;6.740;2022-08-25T18:17:12;30.20;1.00
8481;DHT22;4277;51.354;6.740;2022-08-25T18:19:38;30.00;1.00
8481;DHT22;4277;51.354;6.740;2022-08-25T18:22:05;29.80;1.00
8481;DHT22;4277;51.354;6.740;2022-08-25T18:24:32;29.60;1.00
8481;DHT22;4277;51.354;6.740;2022-08-25T18:27:00;29.40;1.00
8481;DHT22;4277;51.354;6.740;2022-08-25T18:29:26;29.30;1.00
8481;DHT22;4277;51.354;6.740;2022-08-25T18:31:53;29.10;1.00
8481;DHT22;4277;51.354;6.740;2022-08-25T18:34:19;28.90;1.00
8481;DHT22;4277;51.354;6.740;2022-08-25T18:36:47;28.80;1.00
8481;DHT22;4277;51.354;6.740;2022-08-25T18:39:12;28.50;1.00
8481;DHT22;4277;51.354;6.740;2022-08-25T18:41:56;28.40;1.00
8481;DHT22;4277;51.354;6.740;2022-08-25T18:44:22;28.20;1.00
8481;DHT22;4277;51.354;6.740;2022-08-25T18:46:48;28.20;1.00
8481;DHT22;4277;51.354;6.740;2022-08-25T18:49:14;28.00;1.00
8481;DHT22;4277;51.354;6.740;2022-08-25T18:51:42;27.90;1.00
8481;DHT22;4277;51.354;6.740;2022-08-25T18:54:09;27.90;1.00
8481;DHT22;4277;51.354;6.740;2022-08-25T18:56:35;27.80;1.00
8481;DHT22;4277;51.354;6.740;2022-08-25T18:59:14;27.70;1.00
8481;DHT22;4277;51.354;6.740;2022-08-25T19:01:39;27.70;1.00
8481;DHT22;4277;51.354;6.740;2022-08-25T19:04:05;27.60;1.00
8481;DHT22;4277;51.354;6.740;2022-08-25T19:06:31;27.50;1.00
8481;DHT22;4277;51.354;6.740;2022-08-25T19:08:57;27.50;1.00
8481;DHT22;4277;51.354;6.740;2022-08-25T19:11:23;27.40;1.00
8481;DHT22;4277;51.354;6.740;2022-08-25T19:13:50;27.40;1.00
8481;DHT22;4277;51.354;6.740;2022-08-25T19:16:36;27.30;1.00
8481;DHT22;4277;51.354;6.740;2022-08-25T19:19:04;27.30;1.00
8481;DHT22;4277;51.354;6.740;2022-08-25T19:21:31;27.20;1.00
8481;DHT22;4277;51.354;6.740;2022-08-25T19:23:57;27.20;1.00
8481;DHT22;4277;51.354;6.740;2022-08-25T19:26:24;27.10;1.00
8481;DHT22;4277;51.354;6.740;2022-08-25T19:28:50;27.00;1.00
8481;DHT22;4277;51.354;6.740;2022-08-25T19:31:21;27.00;1.00
8481;DHT22;4277;51.354;6.740;2022-08-25T19:33:50;27.00;1.00
8481;DHT22;4277;51.354;6.740;2022-08-25T19:36:19;26.90;1.00
8481;DHT22;4277;51.354;6.740;2022-08-25T19:38:45;26.90;1.00
8481;DHT22;4277;51.354;6.740;2022-08-25T19:41:12;26.80;1.00
8481;DHT22;4277;51.354;6.740;2022-08-25T19:43:39;26.80;1.00
8481;DHT22;4277;51.354;6.740;2022-08-25T19:46:05;26.70;1.00
8481;DHT22;4277;51.354;6.740;2022-08-25T19:48:31;26.70;1.00
8481;DHT22;4277;51.354;6.740;2022-08-25T19:50:58;26.60;1.00
8481;DHT22;4277;51.354;6.740;2022-08-25T19:53:24;26.50;1.00
8481;DHT22;4277;51.354;6.740;2022-08-25T19:55:50;26.60;1.00
8481;DHT22;4277;51.354;6.740;2022-08-25T19:58:16;26.50;1.00
8481;DHT22;4277;51.354;6.740;2022-08-25T20:00:42;26.50;1.00
8481;DHT22;4277;51.354;6.740;2022-08-25T20:03:08;26.40;1.00
8481;DHT22;4277;51.354;6.740;2022-08-25T20:05:34;26.40;1.00
8481;DHT22;4277;51.354;6.740;2022-08-25T20:10:29;26.30;1.00
8481;DHT22;4277;51.354;6.740;2022-08-25T20:12:56;26.20;1.00
8481;DHT22;4277;51.354;6.740;2022-08-25T20:15:22;26.20;1.00
8481;DHT22;4277;51.354;6.740;2022-08-25T20:17:48;26.10;1.00
8481;DHT22;4277;51.354;6.740;2022-08-25T20:20:16;26.10;1.00
8481;DHT22;4277;51.354;6.740;2022-08-25T20:22:44;26.10;1.00
8481;DHT22;4277;51.354;6.740;2022-08-25T20:25:19;26.00;1.00
8481;DHT22;4277;51.354;6.740;2022-08-25T20:27:51;26.00;1.00
8481;DHT22;4277;51.354;6.740;2022-08-25T20:30:23;26.00;1.00
8481;DHT22;4277;51.354;6.740;2022-08-25T20:32:50;25.90;1.00
8481;DHT22;4277;51.354;6.740;2022-08-25T20:35:17;25.90;1.00
8481;DHT22;4277;51.354;6.740;2022-08-25T20:37:45;25.80;1.00
8481;DHT22;4277;51.354;6.740;2022-08-25T20:40:14;25.70;1.00
8481;DHT22;4277;51.354;6.740;2022-08-25T20:42:40;25.50;1.00
8481;DHT22;4277;51.354;6.740;2022-08-25T20:45:07;25.50;1.00
8481;DHT22;4277;51.354;6.740;2022-08-25T20:47:33;25.50;1.30
8481;DHT22;4277;51.354;6.740;2022-08-25T20:49:58;25.40;2.80
8481;DHT22;4277;51.354;6.740;2022-08-25T20:52:24;25.40;1.80
8481;DHT22;4277;51.354;6.740;2022-08-25T20:54:50;25.40;2.50
8481;DHT22;4277;51.354;6.740;2022-08-25T20:57:17;25.40;5.30
8481;DHT22;4277;51.354;6.740;2022-08-25T20:59:43;25.40;5.20
8481;DHT22;4277;51.354;6.740;2022-08-25T21:02:09;25.30;5.80
8481;DHT22;4277;51.354;6.740;2022-08-25T21:04:35;25.30;6.60
8481;DHT22;4277;51.354;6.740;2022-08-25T21:07:01;25.30;7.00
8481;DHT22;4277;51.354;6.740;2022-08-25T21:09:27;25.20;8.50
8481;DHT22;4277;51.354;6.740;2022-08-25T21:11:55;25.20;9.00
8481;DHT22;4277;51.354;6.740;2022-08-25T21:14:22;25.10;10.10
8481;DHT22;4277;51.354;6.740;2022-08-25T21:16:48;25.10;10.50
8481;DHT22;4277;51.354;6.740;2022-08-25T21:19:16;25.10;11.50
8481;DHT22;4277;51.354;6.740;2022-08-25T21:21:43;25.00;12.30
8481;DHT22;4277;51.354;6.740;2022-08-25T21:24:10;25.00;13.20
8481;DHT22;4277;51.354;6.740;2022-08-25T21:26:37;24.90;12.70
8481;DHT22;4277;51.354;6.740;2022-08-25T21:29:05;24.90;13.30
8481;DHT22;4277;51.354;6.740;2022-08-25T21:31:32;24.80;14.40
8481;DHT22;4277;51.354;6.740;2022-08-25T21:33:58;24.80;15.60
8481;DHT22;4277;51.354;6.740;2022-08-25T21:36:25;24.70;15.70
8481;DHT22;4277;51.354;6.740;2022-08-25T21:38:53;24.70;16.90
8481;DHT22;4277;51.354;6.740;2022-08-25T21:41:24;24.70;17.50
8481;DHT22;4277;51.354;6.740;2022-08-25T21:43:51;24.60;18.40
8481;DHT22;4277;51.354;6.740;2022-08-25T21:46:20;24.50;19.00
8481;DHT22;4277;51.354;6.740;2022-08-25T21:48:47;24.50;19.30
8481;DHT22;4277;51.354;6.740;2022-08-25T21:51:20;24.40;20.80
8481;DHT22;4277;51.354;6.740;2022-08-25T21:53:47;24.30;22.50
8481;DHT22;4277;51.354;6.740;2022-08-25T21:56:15;24.30;23.50
8481;DHT22;4277;51.354;6.740;2022-08-25T21:58:43;24.30;23.70
8481;DHT22;4277;51.354;6.740;2022-08-25T22:01:15;24.30;24.60
8481;DHT22;4277;51.354;6.740;2022-08-25T22:03:41;24.30;25.20
8481;DHT22;4277;51.354;6.740;2022-08-25T22:06:09;24.30;27.20
8481;DHT22;4277;51.354;6.740;2022-08-25T22:08:37;24.20;29.60
8481;DHT22;4277;51.354;6.740;2022-08-25T22:11:04;24.20;30.40
8481;DHT22;4277;51.354;6.740;2022-08-25T22:13:31;24.20;32.60
8481;DHT22;4277;51.354;6.740;2022-08-25T22:15:57;24.20;31.40
8481;DHT22;4277;51.354;6.740;2022-08-25T22:18:23;24.10;33.60
8481;DHT22;4277;51.354;6.740;2022-08-25T22:20:49;24.10;34.60
8481;DHT22;4277;51.354;6.740;2022-08-25T23:56:23;24.10;36.80
8481;DHT22;4277;51.354;6.740;2022-08-25T23:58:49;22.70;60.90
